Terminal Aerodrome Forecast
Issued by NWS

Home | Current Version | Previous Version | Text Only | Print | Product List | Glossary On
Versions: 1 2 3 4 5 6 7 8 9 10 11 12 13 14 15 16 17
430
FTUS44 KLIX 271741
TAFMSY
TAF
KMSY 271741Z 2718/2818 07006KT P6SM FEW030 BKN050 BKN200
     FM271915 07007KT P6SM VCTS FEW025CB BKN045 BKN150
      TEMPO 2720/2724 2SM TSRA BKN022CB
     FM280100 09007KT P6SM FEW030 BKN050
     FM280400 11008KT P6SM BKN150
     FM281500 09014KT P6SM FEW018 BKN100=

USA.gov is the U.S. government's official web portal to all federal, state and local government web resources and services.